Alcala de Henares, Spain
Current Conditions -  °F | °C
As of 7:00 PM on Saturday 25 Oct 2014 (Local Time) from LETO Reporting Station
Clear Clear  
Wind Chill: 25°   Ceiling: Unl
Heat Index: 25°   Visibility: 6mi
Dew Point:   Wind: 2mph
Humidity: 32%   Direction: 360°N
Pressure: 30.15"   Gusts: NA
Location:  40.48°N, 3.36°W
Report Text: LETO 251700Z 36002KT CAVOK 25/07 Q1021 NOSIG
Loading
Personal Weather Stations






























Interactive Weather Map
Tropical Storm Tracking
New forecast layout! Learn more

10-Day Weather Forecast

Advertisements
Track Severe Weather on mobile